Time;durP1;ratioP1;P1;durP2;ratioP2;P2;SDS_P1;SDS_P2;PMS_P1;PMS_P2;Temp;Humidity;BMP_temperature;BMP_pressure;BME280_temperature;BME280_humidity;BME280_pressure;Samples;Min_cycle;Max_cycle;Signal;HPM_P1;HPM_P2
2020/12/25 00:13:25;;;;;;;;;;;5.00;99.90;;;3.48;90.57;95048.56;10490142;28;1803;-81
2020/12/25 00:18:37;;;;;;;;;;;5.70;99.90;;;3.38;90.92;95048.47;10517800;28;2024;-80
2020/12/25 00:23:59;;;;;;;;;;;5.30;99.90;;;3.32;90.60;95050.25;10502006;28;1968;-82
2020/12/25 00:29:25;;;;;;;;;;;6.20;99.90;;;3.21;90.81;95062.56;10536404;28;1980;-82
2020/12/25 00:35:18;;;;;;;;;;;4.20;99.90;;;3.11;90.91;95056.31;10477421;28;2147;-82
2020/12/25 01:22:03;;;;;;;;;;;5.40;99.90;;;3.24;91.52;95082.50;9973381;29;2139;-84
2020/12/25 01:50:56;;;;;;;;;;;;;;;;;;;;;
2020/12/25 02:50:29;;;;;;;;;;;4.50;99.90;;;3.54;90.77;95122.00;10178388;29;2045;-82
2020/12/25 03:06:33;;;;;;;;;;;4.40;99.90;;;3.25;91.46;95138.06;10260654;28;2187;-83
2020/12/25 03:11:36;;;;;;;;;;;5.40;99.90;;;2.99;89.68;95154.66;10294614;28;2162;-81
2020/12/25 03:16:41;;;;;;;;;;;4.20;99.90;;;2.78;90.90;95171.28;10292878;28;2104;-81
2020/12/25 03:21:44;;;;;;;;;;;4.60;99.90;;;2.30;89.17;95175.19;10476247;28;2041;-82
2020/12/25 03:26:46;;;;;;;;;;;4.40;99.90;;;2.11;90.07;95201.88;10512160;28;2062;-82
2020/12/25 03:31:49;;;;;;;;;;;3.00;99.90;;;1.79;89.73;95198.03;10513756;28;2046;-80
2020/12/25 03:36:52;;;;;;;;;;;3.10;99.90;;;1.76;90.61;95199.28;10524503;28;2169;-82
2020/12/25 03:41:58;;;;;;;;;;;5.00;99.90;;;1.61;89.84;95212.19;10510363;28;2225;-81
2020/12/25 03:47:03;;;;;;;;;;;3.80;99.90;;;1.50;90.11;95232.34;10500886;28;2035;-79
2020/12/25 03:52:05;;;;;;;;;;;2.60;99.90;;;1.41;90.54;95241.69;10510933;28;1895;-83
2020/12/25 03:57:08;;;;;;;;;;;2.90;99.90;;;1.40;91.01;95263.06;10481765;28;2042;-82
2020/12/25 04:02:10;;;;;;;;;;;4.60;99.90;;;1.41;91.34;95268.16;10493215;28;2015;-82
2020/12/25 04:07:13;;;;;;;;;;;4.70;99.90;;;1.31;91.00;95278.50;10515586;28;2235;-82
2020/12/25 04:12:18;;;;;;;;;;;2.40;99.90;;;1.20;91.35;95295.16;10479961;28;2067;-81
2020/12/25 04:17:21;;;;;;;;;;;3.00;99.90;;;1.08;92.09;95311.00;10494499;28;2185;-81
2020/12/25 04:22:23;;;;;;;;;;;3.70;99.90;;;1.08;91.70;95313.66;10506000;28;2150;-83
2020/12/25 04:27:28;;;;;;;;;;;3.10;99.90;;;1.02;91.95;95331.25;10501677;28;2114;-82
2020/12/25 04:32:32;;;;;;;;;;;3.00;99.90;;;0.94;91.99;95344.78;10508747;28;2039;-82
2020/12/25 04:37:34;;;;;;;;;;;3.10;99.90;;;0.93;92.10;95343.19;10483490;28;2149;-79
2020/12/25 04:42:37;;;;;;;;;;;3.10;99.90;;;0.86;92.20;95363.63;10496388;28;2045;-82
2020/12/25 04:47:42;;;;;;;;;;;3.10;99.90;;;0.92;92.80;95367.22;10494312;28;2117;-80
2020/12/25 04:53:16;;;;;;;;;;;;;;;;;;;;;
2020/12/25 04:58:57;;;;;;;;;;;2.40;99.90;;;0.74;93.54;95382.09;10420174;28;2026;-82
2020/12/25 05:11:28;;;;;;;;;;;;;;;;;;;;;
2020/12/25 05:41:35;;;;;;;;;;;1.40;99.90;;;0.33;94.40;95446.22;10180628;29;2119;-81
2020/12/25 05:47:25;;;;;;;;;;;2.30;99.90;;;0.33;94.75;95459.44;10308766;28;2045;-83
2020/12/25 05:53:12;;;;;;;;;;;1.20;99.90;;;0.29;94.93;95474.09;10464695;22;1962;-83
2020/12/25 05:58:32;;;;;;;;;;;;;;;;;;;;;
2020/12/25 06:03:48;;;;;;;;;;;1.20;99.90;;;0.19;94.91;95482.53;10580180;28;2118;-83
2020/12/25 06:25:41;;;;;;;;;;;1.20;99.90;;;0.18;94.96;95519.72;10345748;28;1998;-83
2020/12/25 06:30:44;;;;;;;;;;;2.10;99.90;;;0.18;95.17;95523.19;10469208;28;2100;-83
2020/12/25 06:35:50;;;;;;;;;;;2.40;99.90;;;0.21;95.19;95532.53;10541766;28;2032;-82
2020/12/25 06:41:11;;;;;;;;;;;2.80;99.90;;;0.26;95.11;95532.69;10514914;28;2044;-81
2020/12/25 06:46:15;;;;;;;;;;;1.20;99.90;;;0.25;94.90;95546.91;10500496;28;1995;-81
2020/12/25 06:51:42;;;;;;;;;;;1.30;99.90;;;0.25;94.87;95552.19;10508699;28;2052;-82
2020/12/25 06:56:54;;;;;;;;;;;1.30;99.90;;;0.30;94.69;95565.59;10518784;28;2067;-82
2020/12/25 07:02:05;;;;;;;;;;;2.00;99.90;;;0.37;94.69;95563.72;10515135;28;1999;-81
2020/12/25 07:07:20;;;;;;;;;;;3.40;99.90;;;0.47;95.01;95577.28;10492812;28;2111;-82
2020/12/25 07:12:33;;;;;;;;;;;2.80;99.90;;;0.45;94.10;95589.91;10530022;28;2075;-80
2020/12/25 07:17:52;;;;;;;;;;;1.40;99.90;;;0.44;93.74;95598.03;10508056;28;2073;-82
2020/12/25 07:23:06;;;;;;;;;;;2.50;99.90;;;0.42;93.72;95597.44;10518577;28;2180;-81
2020/12/25 07:28:23;;;;;;;;;;;;;;;;;;;;;
2020/12/25 07:33:58;;;;;;;;;;;1.50;99.90;;;0.62;94.02;95613.19;10502975;28;2076;-82
2020/12/25 07:39:48;;;;;;;;;;;3.50;99.90;;;0.56;93.22;95621.97;10399651;28;1946;-81
2020/12/25 07:45:05;;;;;;;;;;;2.80;99.90;;;0.54;93.25;95625.63;10400745;28;2074;-81
2020/12/25 07:56:30;;;;;;;;;;;3.00;99.90;;;0.65;93.94;95626.78;10414948;28;1971;-82
2020/12/25 08:02:02;;;;;;;;;;;;;;;;;;;;;
2020/12/25 08:07:30;;;;;;;;;;;3.70;99.90;;;0.66;93.35;95643.47;10401382;28;2067;-80
2020/12/25 08:13:20;;;;;;;;;;;3.10;99.90;;;0.73;93.16;95649.53;10459399;28;2035;-82
2020/12/25 08:24:55;;;;;;;;;;;1.80;99.90;;;0.97;92.89;95651.38;10483868;28;2270;-83
2020/12/25 08:30:41;;;;;;;;;;;3.50;99.90;;;1.04;92.42;95651.31;10505125;28;1887;-82
2020/12/25 08:48:33;;;;;;;;;;;1.90;99.90;;;1.02;92.22;95675.38;10363249;28;2220;-82
2020/12/25 09:11:55;;;;;;;;;;;2.30;99.90;;;1.16;91.34;95699.09;10485213;28;2045;-82
2020/12/25 09:17:32;;;;;;;;;;;2.00;99.90;;;1.23;90.68;95713.88;10502464;28;1925;-82
2020/12/25 09:45:17;;;;;;;;;;;4.10;99.90;;;1.51;88.53;95707.31;10381050;28;2181;-83
2020/12/25 09:50:52;;;;;;;;;;;3.10;99.90;;;1.52;88.68;95717.69;10387846;28;1975;-82
2020/12/25 09:56:40;;;;;;;;;;;4.00;99.90;;;1.70;88.50;95724.84;10390123;28;1967;-81
2020/12/25 10:01:56;;;;;;;;;;;4.10;99.90;;;1.62;88.41;95722.50;10372064;28;1962;-83
2020/12/25 10:07:11;;;;;;;;;;;4.10;99.90;;;1.66;88.17;95714.94;10373376;28;3124;-80
2020/12/25 10:12:45;;;;;;;;;;;3.20;99.90;;;1.67;87.80;95709.41;10354466;28;3185;-82
2020/12/25 10:17:57;;;;;;;;;;;2.50;99.90;;;1.74;87.73;95714.63;10362014;28;1999;-82
2020/12/25 10:23:34;;;;;;;;;;;2.70;99.90;;;1.65;87.64;95716.75;10359465;28;1891;-82
2020/12/25 10:29:23;;;;;;;;;;;2.70;99.90;;;1.61;86.81;95728.84;10359725;28;1911;-82
2020/12/25 10:34:41;;;;;;;;;;;2.70;99.90;;;1.45;86.95;95722.22;10457771;23;2075;-81
2020/12/25 10:51:09;;;;;;;;;;;2.50;99.90;;;1.46;85.63;95723.84;10217051;28;2141;-83
2020/12/25 10:56:35;;;;;;;;;;;2.30;99.90;;;1.40;86.67;95730.03;10267172;28;2024;-83
2020/12/25 11:02:16;;;;;;;;;;;2.80;99.90;;;1.32;85.57;95732.94;10433769;28;1872;-80
2020/12/25 11:08:02;;;;;;;;;;;;;;;;;;;;;
2020/12/25 11:13:32;;;;;;;;;;;;;;;;;;;;;
2020/12/25 11:31:53;;;;;;;;;;;3.60;99.90;;;1.73;85.61;95718.31;10474267;28;1910;-81
2020/12/25 12:19:25;;;;;;;;;;;2.80;99.90;;;1.83;84.74;95723.91;10504527;28;1856;-80
2020/12/25 12:49:06;;;;;;;;;;;;;;;;;;;;;
2020/12/25 13:24:26;;;;;;;;;;;3.30;99.90;;;0.36;92.85;95736.63;10446198;28;1941;-80
2020/12/25 14:23:43;;;;;;;;;;;;;;;;;;;;;
2020/12/25 15:36:07;;;;;;;;;;;3.30;99.90;;;0.44;93.31;95815.69;10389746;28;1914;-82
2020/12/25 16:53:30;;;;;;;;;;;1.60;99.90;;;-0.48;95.00;95905.66;10254117;28;1925;-83
2020/12/25 17:05:08;;;;;;;;;;;1.90;99.90;;;-0.49;96.08;95917.25;10217047;28;2118;-81
2020/12/25 17:11:04;;;;;;;;;;;0.60;99.90;;;-0.42;95.66;95921.53;10254292;28;1907;-82
2020/12/25 17:16:36;;;;;;;;;;;2.20;99.90;;;-0.36;95.91;95930.47;10248902;28;1955;-80
2020/12/25 17:33:49;;;;;;;;;;;0.70;99.90;;;-0.31;95.09;95952.63;10096690;29;1949;-81
2020/12/25 17:51:41;;;;;;;;;;;2.30;99.90;;;-0.44;93.22;95955.25;10149088;28;1964;-83
2020/12/25 18:03:47;;;;;;;;;;;;;;;;;;;;;
2020/12/25 18:22:03;;;;;;;;;;;0.10;99.90;;;-0.87;87.27;95986.38;10123845;29;2164;-81
2020/12/25 18:27:43;;;;;;;;;;;1.50;99.90;;;-0.84;88.02;95993.91;10181301;29;1997;-82
2020/12/25 18:33:05;;;;;;;;;;;1.30;99.90;;;-0.90;86.81;95997.31;10194417;29;1620;-82
2020/12/25 18:38:21;;;;;;;;;;;1.50;99.90;;;-0.96;87.22;96003.38;10197606;29;2077;-83
2020/12/25 18:43:33;;;;;;;;;;;0.10;99.90;;;-1.02;86.21;96010.25;10235714;28;2067;-81
2020/12/25 18:49:01;;;;;;;;;;;1.20;99.90;;;-1.00;87.56;96026.72;10342239;28;2041;-83
2020/12/25 18:59:50;;;;;;;;;;;0.00;99.90;;;-1.13;85.35;96037.19;10449476;28;1860;-82
2020/12/25 19:05:07;;;;;;;;;;;1.90;99.90;;;-1.15;85.75;96037.38;10480340;28;1733;-82
2020/12/25 19:10:17;;;;;;;;;;;;;;;-1.16;85.83;96048.13;10477936;28;2019;-82
2020/12/25 19:15:52;;;;;;;;;;;0.00;99.90;;;-1.16;85.40;96048.94;10486372;28;1860;-81
2020/12/25 19:20:59;;;;;;;;;;;0.10;99.90;;;-1.02;85.75;96056.94;10490618;28;1692;-82
2020/12/25 19:26:05;;;;;;;;;;;-0.10;99.90;;;-1.08;84.95;96063.81;10477880;28;2096;-81
2020/12/25 19:31:07;;;;;;;;;;;0.00;99.90;;;-1.16;85.69;96072.69;10468608;28;1979;-81
2020/12/25 19:36:13;;;;;;;;;;;-0.10;99.90;;;-1.09;84.60;96078.81;10474313;28;1834;-81
2020/12/25 19:41:20;;;;;;;;;;;1.20;99.90;;;-1.11;85.26;96078.19;10475652;28;1882;-81
2020/12/25 19:46:23;;;;;;;;;;;1.50;99.90;;;-1.10;84.36;96085.09;10467026;28;1962;-81
2020/12/25 19:51:28;;;;;;;;;;;0.20;99.90;;;-1.12;83.48;96094.22;10469695;28;1917;-83
2020/12/25 19:56:42;;;;;;;;;;;-0.10;99.90;;;-1.19;83.75;96090.72;10448881;28;2017;-81
2020/12/25 20:02:10;;;;;;;;;;;1.00;99.90;;;-1.14;84.99;96102.34;10466367;28;2125;-80
2020/12/25 20:07:19;;;;;;;;;;;-0.10;99.90;;;-1.10;84.18;96116.75;10476489;28;2229;-80
2020/12/25 20:12:23;;;;;;;;;;;-0.20;99.90;;;-1.03;84.73;96114.16;10471264;28;1998;-82
2020/12/25 20:17:33;;;;;;;;;;;1.40;99.90;;;-1.09;80.71;96120.22;10466431;28;2018;-81
2020/12/25 20:22:54;;;;;;;;;;;0.00;99.90;;;-1.13;83.26;96119.81;10464038;28;1869;-80
2020/12/25 20:28:02;;;;;;;;;;;1.50;99.90;;;-1.14;80.84;96117.34;10464186;28;2026;-81
2020/12/25 20:33:07;;;;;;;;;;;-0.10;99.90;;;-1.04;81.48;96122.28;10485395;28;2273;-81
2020/12/25 20:38:11;;;;;;;;;;;0.60;99.90;;;-1.16;82.00;96127.25;10459702;28;1935;-81
2020/12/25 20:43:13;;;;;;;;;;;1.10;99.90;;;-1.04;82.05;96132.84;10436215;28;2006;-81
2020/12/25 20:48:26;;;;;;;;;;;0.90;99.90;;;-1.00;79.25;96140.19;10459659;28;2077;-81
2020/12/25 20:53:30;;;;;;;;;;;0.10;99.90;;;-1.11;79.34;96149.44;10469683;28;2013;-82
2020/12/25 20:58:39;;;;;;;;;;;1.00;99.90;;;-1.16;80.00;96143.09;10482916;28;2045;-81
2020/12/25 21:03:48;;;;;;;;;;;0.00;99.90;;;-0.93;80.90;96148.16;10476490;28;1845;-84
2020/12/25 21:09:01;;;;;;;;;;;0.00;99.90;;;-1.02;77.80;96154.56;10462103;28;2084;-82
